createdAt,value
2023-03-31T00:01:46.584Z,7.55
2023-03-31T00:04:13.579Z,7.58
2023-03-31T00:06:42.327Z,7.61
2023-03-31T00:09:13.323Z,7.62
2023-03-31T00:11:41.152Z,7.63
2023-03-31T00:14:08.354Z,7.65
2023-03-31T00:16:36.370Z,7.66
2023-03-31T00:19:03.389Z,7.64
2023-03-31T00:21:30.799Z,7.62
2023-03-31T00:23:59.971Z,7.61
2023-03-31T00:26:26.684Z,7.58
2023-03-31T00:28:53.850Z,7.55
2023-03-31T00:31:21.857Z,7.52
2023-03-31T00:33:49.401Z,7.51
2023-03-31T00:36:16.561Z,7.49
2023-03-31T00:38:43.672Z,7.45
2023-03-31T00:41:10.120Z,7.42
2023-03-31T00:43:38.528Z,7.41
2023-03-31T00:46:30.222Z,7.43
2023-03-31T00:48:58.121Z,7.45
2023-03-31T00:51:28.233Z,7.46
2023-03-31T00:53:59.410Z,7.50
2023-03-31T00:56:31.159Z,7.52
2023-03-31T00:59:02.342Z,7.55
2023-03-31T01:01:31.376Z,7.59
2023-03-31T01:03:58.101Z,7.66
2023-03-31T01:06:25.423Z,7.71
2023-03-31T01:08:53.026Z,7.76
2023-03-31T01:11:22.507Z,7.81
2023-03-31T01:13:51.535Z,7.85
2023-03-31T01:16:18.372Z,7.90
2023-03-31T01:18:45.540Z,7.93
2023-03-31T01:21:42.716Z,7.94
2023-03-31T01:24:37.403Z,7.87
2023-03-31T01:27:19.269Z,7.81
2023-03-31T01:30:04.438Z,7.77
2023-03-31T01:33:09.009Z,7.76
2023-03-31T01:35:51.501Z,7.76
2023-03-31T01:38:27.223Z,7.77
2023-03-31T01:41:15.685Z,7.77
2023-03-31T01:44:07.782Z,7.79
2023-03-31T01:46:45.883Z,7.85
2023-03-31T01:49:28.164Z,7.86
2023-03-31T01:52:06.805Z,7.86
2023-03-31T01:54:42.330Z,7.87
2023-03-31T01:57:29.069Z,7.88
2023-03-31T02:00:01.734Z,7.92
2023-03-31T02:02:59.731Z,7.94
2023-03-31T02:05:33.938Z,7.92
2023-03-31T02:08:08.407Z,7.86
2023-03-31T02:10:35.777Z,7.82
2023-03-31T02:13:04.129Z,7.79
2023-03-31T02:15:35.788Z,7.76
2023-03-31T02:18:04.925Z,7.74
2023-03-31T02:20:33.406Z,7.70
2023-03-31T02:23:00.538Z,7.69
2023-03-31T02:25:35.766Z,7.68
2023-03-31T02:28:09.889Z,7.69
2023-03-31T02:31:00.355Z,7.70
2023-03-31T02:33:27.892Z,7.69
2023-03-31T02:35:54.626Z,7.69
2023-03-31T02:38:21.429Z,7.72
2023-03-31T02:40:47.918Z,7.73
2023-03-31T02:43:14.662Z,7.70
2023-03-31T02:45:51.766Z,7.66
2023-03-31T02:48:41.256Z,7.60
2023-03-31T02:51:07.747Z,7.50
2023-03-31T02:53:49.431Z,7.47
2023-03-31T02:56:21.871Z,7.43
2023-03-31T02:59:11.199Z,7.39
2023-03-31T03:02:02.245Z,7.33
2023-03-31T03:04:56.526Z,7.31
2023-03-31T03:07:34.318Z,7.36
2023-03-31T03:10:12.635Z,7.39
2023-03-31T03:13:17.818Z,7.35
2023-03-31T03:16:08.296Z,7.27
2023-03-31T03:18:35.462Z,7.18
2023-03-31T03:21:01.878Z,7.14
2023-03-31T03:23:28.283Z,7.10
2023-03-31T03:25:55.034Z,7.04
2023-03-31T03:28:21.757Z,6.97
2023-03-31T03:30:48.218Z,6.93
2023-03-31T03:33:15.925Z,6.89
2023-03-31T03:35:43.447Z,6.85
2023-03-31T03:38:10.269Z,6.81
2023-03-31T03:40:36.778Z,6.79
2023-03-31T03:43:03.596Z,6.82
2023-03-31T03:45:30.053Z,6.81
2023-03-31T03:47:56.545Z,6.81
2023-03-31T03:50:23.087Z,6.80
2023-03-31T03:52:49.979Z,6.79
2023-03-31T03:55:16.605Z,6.77
2023-03-31T03:57:43.162Z,6.77
2023-03-31T04:00:10.472Z,6.76
2023-03-31T04:02:37.030Z,6.73
2023-03-31T04:05:09.886Z,6.70
2023-03-31T04:07:36.663Z,6.65
2023-03-31T04:10:03.685Z,6.58
2023-03-31T04:12:30.525Z,6.55
2023-03-31T04:14:57.068Z,6.52
2023-03-31T04:17:23.930Z,6.48
2023-03-31T04:19:50.325Z,6.45
2023-03-31T04:22:16.899Z,6.44
2023-03-31T04:24:43.312Z,6.44
2023-03-31T04:27:09.709Z,6.45
2023-03-31T04:29:36.178Z,6.45
2023-03-31T04:32:02.654Z,6.46
2023-03-31T04:34:29.117Z,6.47
2023-03-31T04:36:55.673Z,6.48
2023-03-31T04:39:22.359Z,6.51
2023-03-31T04:41:48.761Z,6.53
2023-03-31T04:44:15.393Z,6.55
2023-03-31T04:46:41.821Z,6.54
2023-03-31T04:49:08.398Z,6.54
2023-03-31T04:51:34.930Z,6.53
2023-03-31T04:54:01.497Z,6.49
2023-03-31T04:56:27.999Z,6.44
2023-03-31T04:58:54.567Z,6.40
2023-03-31T05:01:21.093Z,6.40
2023-03-31T05:03:48.232Z,6.45
2023-03-31T05:06:21.068Z,6.49
2023-03-31T05:08:47.502Z,6.59
2023-03-31T05:11:13.962Z,6.77
2023-03-31T05:13:40.422Z,7.10
2023-03-31T05:16:12.094Z,7.54
2023-03-31T05:18:39.063Z,8.09
2023-03-31T05:21:18.240Z,8.68
2023-03-31T05:23:44.976Z,9.27
2023-03-31T05:26:12.060Z,9.64
2023-03-31T05:28:38.643Z,9.90
2023-03-31T05:31:07.073Z,10.08
2023-03-31T05:33:34.216Z,10.11
2023-03-31T05:36:01.341Z,9.97
2023-03-31T05:38:28.350Z,9.86
2023-03-31T05:40:56.145Z,9.83
2023-03-31T05:43:22.986Z,9.88
2023-03-31T05:45:49.519Z,9.86
2023-03-31T05:48:16.064Z,9.84
2023-03-31T05:50:42.591Z,9.83
2023-03-31T05:53:09.156Z,9.89
2023-03-31T05:55:36.597Z,10.03
2023-03-31T05:58:03.326Z,10.08
2023-03-31T06:00:29.917Z,10.12
2023-03-31T06:02:56.656Z,10.15
2023-03-31T06:05:23.517Z,10.16
2023-03-31T06:07:53.880Z,10.30
2023-03-31T06:10:20.399Z,10.71
2023-03-31T06:12:46.944Z,11.08
2023-03-31T06:15:13.708Z,11.35
2023-03-31T06:17:40.307Z,11.60
2023-03-31T06:20:19.717Z,11.74
2023-03-31T06:22:53.330Z,11.93
2023-03-31T06:25:19.913Z,12.15
2023-03-31T06:27:46.401Z,12.50
2023-03-31T06:30:13.869Z,12.74
2023-03-31T06:32:40.707Z,13.03
2023-03-31T06:35:08.139Z,13.39
2023-03-31T06:37:34.652Z,13.45
2023-03-31T06:40:01.206Z,13.51
2023-03-31T06:42:27.725Z,13.66
2023-03-31T06:44:54.158Z,13.77
2023-03-31T06:47:20.912Z,13.76
2023-03-31T06:49:47.468Z,13.74
2023-03-31T06:52:13.972Z,13.74
2023-03-31T06:54:40.550Z,13.90
2023-03-31T06:57:07.006Z,14.32
2023-03-31T06:59:33.481Z,14.63
2023-03-31T07:02:00.205Z,14.71
2023-03-31T07:04:26.809Z,14.59
2023-03-31T07:06:53.260Z,14.45
2023-03-31T07:09:21.416Z,14.47
2023-03-31T07:11:47.897Z,14.46
2023-03-31T07:14:14.463Z,14.39
2023-03-31T07:16:41.527Z,14.35
2023-03-31T07:19:08.110Z,14.44
2023-03-31T07:21:34.554Z,14.63
2023-03-31T07:24:00.989Z,14.77
2023-03-31T07:26:27.500Z,15.02
2023-03-31T07:28:53.918Z,15.38
2023-03-31T07:31:20.475Z,15.85
2023-03-31T07:33:46.897Z,16.03
2023-03-31T07:36:14.453Z,16.02
2023-03-31T07:38:46.514Z,16.08
2023-03-31T07:41:14.633Z,16.53
2023-03-31T07:43:41.343Z,16.75
2023-03-31T07:46:15.122Z,16.82
2023-03-31T07:48:41.624Z,17.04
2023-03-31T07:51:08.374Z,17.21
2023-03-31T07:53:35.072Z,17.43
2023-03-31T07:56:01.689Z,17.25
2023-03-31T07:58:28.125Z,16.81
2023-03-31T08:00:54.630Z,16.80
2023-03-31T08:03:21.278Z,16.86
2023-03-31T08:05:49.391Z,16.73
2023-03-31T08:08:16.999Z,16.76
2023-03-31T08:10:49.530Z,17.10
2023-03-31T08:13:17.129Z,17.43
2023-03-31T08:15:43.675Z,17.66
2023-03-31T08:18:10.488Z,17.27
2023-03-31T08:20:37.044Z,17.12
2023-03-31T08:23:03.473Z,17.33
2023-03-31T08:25:29.937Z,17.66
2023-03-31T08:27:56.386Z,17.82
2023-03-31T08:30:22.844Z,17.59
2023-03-31T08:32:49.257Z,17.55
2023-03-31T08:35:15.927Z,17.60
2023-03-31T08:37:42.371Z,17.69
2023-03-31T08:40:16.695Z,17.99
2023-03-31T08:42:50.626Z,18.22
2023-03-31T08:45:31.201Z,18.44
2023-03-31T08:48:05.311Z,18.55
2023-03-31T08:50:47.712Z,18.51
2023-03-31T08:53:25.169Z,18.41
2023-03-31T08:55:54.331Z,18.21
2023-03-31T08:58:39.645Z,18.05
2023-03-31T09:01:27.792Z,17.98
2023-03-31T09:04:22.496Z,17.92
2023-03-31T09:07:01.382Z,17.93
2023-03-31T09:09:57.895Z,17.92
2023-03-31T09:12:49.125Z,17.81
2023-03-31T09:15:44.825Z,17.80
2023-03-31T09:18:39.038Z,17.36
2023-03-31T09:21:16.442Z,17.46
2023-03-31T09:23:48.704Z,17.56
2023-03-31T09:26:27.220Z,17.65
2023-03-31T09:28:56.630Z,17.69
2023-03-31T09:31:23.996Z,17.80
2023-03-31T09:33:54.588Z,17.63
2023-03-31T09:36:22.109Z,17.69
2023-03-31T09:38:48.777Z,17.69
2023-03-31T09:41:16.986Z,17.79
2023-03-31T09:43:43.928Z,18.00
2023-03-31T09:46:23.125Z,18.27
2023-03-31T09:48:59.963Z,18.32
2023-03-31T09:51:30.681Z,18.51
2023-03-31T09:54:04.002Z,18.48
2023-03-31T09:56:44.238Z,18.44
2023-03-31T09:59:22.668Z,18.30
2023-03-31T10:01:56.785Z,18.27
2023-03-31T10:04:27.599Z,18.40
2023-03-31T10:06:55.626Z,18.52
2023-03-31T10:09:27.213Z,18.44
2023-03-31T10:11:57.614Z,18.25
2023-03-31T10:14:27.409Z,18.06
2023-03-31T10:16:56.239Z,18.01
2023-03-31T10:19:28.837Z,18.12
2023-03-31T10:22:01.695Z,18.18
2023-03-31T10:24:40.594Z,18.31
2023-03-31T10:27:28.850Z,18.56
2023-03-31T10:30:01.807Z,18.48
2023-03-31T10:32:33.889Z,18.26
2023-03-31T10:35:21.207Z,18.19
2023-03-31T10:37:49.818Z,18.12
2023-03-31T10:40:22.189Z,18.12
2023-03-31T10:42:58.427Z,17.99
2023-03-31T10:45:37.377Z,17.91
2023-03-31T10:48:16.882Z,17.61
2023-03-31T10:50:44.088Z,17.42
2023-03-31T10:53:15.639Z,17.42
2023-03-31T10:55:55.704Z,17.61
2023-03-31T10:58:40.870Z,17.78
2023-03-31T11:01:22.559Z,17.92
2023-03-31T11:04:07.131Z,18.05
2023-03-31T11:06:33.567Z,18.12
2023-03-31T11:09:22.188Z,18.17
2023-03-31T11:12:24.857Z,18.33
2023-03-31T11:15:25.609Z,18.01
2023-03-31T11:17:58.226Z,17.93
2023-03-31T11:20:48.783Z,18.05
2023-03-31T11:23:24.576Z,18.28
2023-03-31T11:25:57.869Z,18.30
2023-03-31T11:28:52.244Z,18.36
2023-03-31T11:31:39.532Z,18.32
2023-03-31T11:34:20.884Z,18.36
2023-03-31T11:37:02.656Z,18.60
2023-03-31T11:39:43.271Z,18.69
2023-03-31T11:42:24.000Z,18.81
2023-03-31T11:44:55.172Z,19.13
2023-03-31T11:47:28.526Z,19.21
2023-03-31T11:49:59.314Z,19.04
2023-03-31T11:52:32.923Z,18.87
2023-03-31T11:55:15.194Z,18.44
2023-03-31T11:57:52.776Z,18.03
2023-03-31T12:00:26.089Z,17.73
2023-03-31T12:03:20.821Z,17.63
2023-03-31T12:06:03.143Z,17.45
2023-03-31T12:08:38.928Z,17.45
2023-03-31T12:11:13.346Z,17.46
2023-03-31T12:13:51.216Z,17.37
2023-03-31T12:16:38.830Z,17.23
2023-03-31T12:19:20.949Z,17.16
2023-03-31T12:21:52.951Z,17.18
2023-03-31T12:24:19.528Z,17.26
2023-03-31T12:26:49.041Z,17.43
2023-03-31T12:29:32.355Z,17.64
2023-03-31T12:32:03.312Z,17.67
2023-03-31T12:34:31.758Z,17.72
2023-03-31T12:37:32.579Z,17.77
2023-03-31T12:40:01.981Z,17.87
2023-03-31T12:42:46.711Z,17.86
2023-03-31T12:45:25.004Z,17.89
2023-03-31T12:48:10.318Z,17.68
2023-03-31T12:51:10.266Z,17.41
2023-03-31T12:53:53.437Z,17.22
2023-03-31T12:56:20.030Z,17.13
2023-03-31T12:58:46.785Z,17.21
2023-03-31T13:01:16.838Z,17.15
2023-03-31T13:03:53.889Z,17.13
2023-03-31T13:06:29.661Z,17.23
2023-03-31T13:09:00.993Z,17.35
2023-03-31T13:11:33.196Z,17.48
2023-03-31T13:14:20.144Z,17.61
2023-03-31T13:19:41.712Z,17.86
2023-03-31T13:22:29.324Z,18.01
2023-03-31T13:25:31.062Z,18.17
2023-03-31T13:28:04.227Z,18.32
2023-03-31T13:30:36.556Z,18.68
2023-03-31T13:33:55.525Z,18.90
2023-03-31T13:36:34.010Z,19.07
2023-03-31T13:39:28.229Z,19.05
2023-03-31T13:42:21.037Z,19.08
2023-03-31T13:45:35.941Z,19.07
2023-03-31T13:48:28.117Z,18.82
2023-03-31T13:51:00.752Z,18.69
2023-03-31T13:54:04.631Z,18.67
2023-03-31T13:56:46.561Z,18.32
2023-03-31T13:59:50.860Z,17.95
2023-03-31T14:02:48.498Z,17.74
2023-03-31T14:05:35.570Z,17.61
2023-03-31T14:08:19.105Z,17.62
2023-03-31T14:10:45.648Z,17.62
2023-03-31T14:13:16.332Z,17.59
2023-03-31T14:15:50.628Z,17.52
2023-03-31T14:18:25.360Z,17.41
2023-03-31T14:21:36.467Z,17.28
2023-03-31T14:24:21.389Z,17.14
2023-03-31T14:26:54.058Z,17.00
2023-03-31T14:29:49.539Z,16.84
2023-03-31T14:32:21.923Z,16.75
2023-03-31T14:35:13.037Z,16.70
2023-03-31T14:37:40.314Z,16.63
2023-03-31T14:40:15.130Z,16.55
2023-03-31T14:42:42.661Z,16.48
2023-03-31T14:45:26.271Z,16.39
2023-03-31T14:48:09.242Z,16.33
2023-03-31T14:50:36.586Z,16.25
2023-03-31T14:53:03.521Z,16.16
2023-03-31T14:55:54.150Z,16.10
2023-03-31T14:58:29.040Z,16.07
2023-03-31T15:00:56.077Z,16.04
2023-03-31T15:03:25.523Z,16.01
2023-03-31T15:05:57.838Z,15.95
2023-03-31T15:08:25.856Z,15.82
2023-03-31T15:11:02.381Z,15.74
2023-03-31T15:13:56.672Z,15.65
2023-03-31T15:16:43.256Z,15.55
2023-03-31T15:19:22.798Z,15.49
2023-03-31T15:22:15.622Z,15.42
2023-03-31T15:24:42.399Z,15.32
2023-03-31T15:27:12.946Z,15.25
2023-03-31T15:29:59.261Z,15.13
2023-03-31T15:32:39.338Z,15.06
2023-03-31T15:35:20.926Z,14.98
2023-03-31T15:37:51.155Z,14.88
2023-03-31T15:40:25.356Z,14.79
2023-03-31T15:43:31.886Z,14.70
2023-03-31T15:46:02.221Z,14.60
2023-03-31T15:48:35.747Z,14.49
2023-03-31T15:51:07.435Z,14.37
2023-03-31T15:53:43.683Z,14.27
2023-03-31T15:56:32.446Z,14.16
2023-03-31T15:59:04.355Z,14.04
2023-03-31T16:01:33.782Z,13.94
2023-03-31T16:04:02.444Z,13.84
2023-03-31T16:06:38.178Z,13.73
2023-03-31T16:09:11.620Z,13.57
2023-03-31T16:11:44.075Z,13.40
2023-03-31T16:14:32.079Z,13.22
2023-03-31T16:17:06.398Z,13.04
2023-03-31T16:19:46.405Z,12.88
2023-03-31T16:22:21.487Z,12.78
2023-03-31T16:24:48.899Z,12.67
2023-03-31T16:27:15.418Z,12.56
2023-03-31T16:29:42.004Z,12.45
2023-03-31T16:32:19.384Z,12.35
2023-03-31T16:34:52.478Z,12.26
2023-03-31T16:37:19.428Z,12.20
2023-03-31T16:39:45.933Z,12.16
2023-03-31T16:42:12.497Z,12.15
2023-03-31T16:44:40.268Z,12.15
2023-03-31T16:47:07.553Z,12.15
2023-03-31T16:49:34.231Z,12.13
2023-03-31T16:52:00.678Z,12.13
2023-03-31T16:54:27.322Z,12.13
2023-03-31T16:56:53.904Z,12.13
2023-03-31T16:59:20.387Z,12.09
2023-03-31T17:01:46.904Z,12.01
2023-03-31T17:04:13.358Z,11.91
2023-03-31T17:06:39.974Z,11.82
2023-03-31T17:09:06.421Z,11.74
2023-03-31T17:11:34.466Z,11.68
2023-03-31T17:14:01.320Z,11.65
2023-03-31T17:16:36.426Z,11.64
2023-03-31T17:19:13.777Z,11.65
2023-03-31T17:21:40.247Z,11.64
2023-03-31T17:24:07.645Z,11.64
2023-03-31T17:26:34.439Z,11.62
2023-03-31T17:29:00.928Z,11.60
2023-03-31T17:31:27.441Z,11.59
2023-03-31T17:33:54.152Z,11.55
2023-03-31T17:36:20.646Z,11.51
2023-03-31T17:38:47.359Z,11.48
2023-03-31T17:41:14.149Z,11.44
2023-03-31T17:43:44.872Z,11.41
2023-03-31T17:46:12.644Z,11.35
2023-03-31T17:48:40.964Z,11.31
2023-03-31T17:51:15.921Z,11.26
2023-03-31T17:53:44.402Z,11.22
2023-03-31T17:56:11.756Z,11.17
2023-03-31T17:58:38.284Z,11.12
2023-03-31T18:01:06.889Z,11.08
2023-03-31T18:03:34.235Z,11.04
2023-03-31T18:06:06.431Z,11.00
2023-03-31T18:08:33.856Z,10.98
2023-03-31T18:11:01.596Z,10.97
2023-03-31T18:13:28.087Z,10.95
2023-03-31T18:15:54.800Z,10.97
2023-03-31T18:18:21.654Z,10.98
2023-03-31T18:20:48.119Z,10.99
2023-03-31T18:23:18.346Z,11.01
2023-03-31T18:25:45.792Z,11.02
2023-03-31T18:28:14.304Z,11.03
2023-03-31T18:30:40.948Z,11.04
2023-03-31T18:33:07.610Z,11.04
2023-03-31T18:35:34.186Z,11.04
2023-03-31T18:38:00.791Z,11.01
2023-03-31T18:40:27.296Z,10.98
2023-03-31T18:42:53.770Z,10.95
2023-03-31T18:45:20.250Z,10.89
2023-03-31T18:47:46.696Z,10.83
2023-03-31T18:50:13.944Z,10.77
2023-03-31T18:52:40.649Z,10.73
2023-03-31T18:55:07.725Z,10.70
2023-03-31T18:57:34.268Z,10.69
2023-03-31T19:00:00.782Z,10.72
2023-03-31T19:02:27.669Z,10.73
2023-03-31T19:04:54.404Z,10.71
2023-03-31T19:07:20.962Z,10.70
2023-03-31T19:09:47.616Z,10.69
2023-03-31T19:12:14.078Z,10.67
2023-03-31T19:14:40.835Z,10.67
2023-03-31T19:17:07.270Z,10.67
2023-03-31T19:19:33.851Z,10.65
2023-03-31T19:22:00.273Z,10.62
2023-03-31T19:24:28.509Z,10.57
2023-03-31T19:26:55.065Z,10.51
2023-03-31T19:29:21.591Z,10.45
2023-03-31T19:31:48.158Z,10.40
2023-03-31T19:34:14.790Z,10.33
2023-03-31T19:36:41.236Z,10.27
2023-03-31T19:39:07.772Z,10.23
2023-03-31T19:41:35.686Z,10.16
2023-03-31T19:44:02.821Z,10.09
2023-03-31T19:46:29.870Z,10.03
2023-03-31T19:48:56.513Z,9.96
2023-03-31T19:51:23.161Z,9.92
2023-03-31T19:53:49.676Z,9.90
2023-03-31T19:56:17.925Z,9.93
2023-03-31T19:58:44.908Z,9.95
2023-03-31T20:01:23.410Z,9.94
2023-03-31T20:03:50.739Z,9.93
2023-03-31T20:06:17.495Z,9.93
2023-03-31T20:08:44.157Z,9.92
2023-03-31T20:11:13.031Z,9.89
2023-03-31T20:13:41.636Z,9.85
2023-03-31T20:16:14.650Z,9.82
2023-03-31T20:18:41.861Z,9.78
2023-03-31T20:21:11.914Z,9.75
2023-03-31T20:23:40.093Z,9.70
2023-03-31T20:26:13.158Z,9.68
2023-03-31T20:28:40.481Z,9.67
2023-03-31T20:31:09.586Z,9.68
2023-03-31T20:33:36.166Z,9.67
2023-03-31T20:36:05.232Z,9.68
2023-03-31T20:38:32.670Z,9.69
2023-03-31T20:40:59.123Z,9.69
2023-03-31T20:43:26.164Z,9.70
2023-03-31T20:45:54.466Z,9.73
2023-03-31T20:48:21.006Z,9.76
2023-03-31T20:50:47.699Z,9.79
2023-03-31T20:53:14.150Z,9.79
2023-03-31T20:55:41.141Z,9.76
2023-03-31T20:58:07.630Z,9.75
2023-03-31T21:00:34.057Z,9.71
2023-03-31T21:03:00.505Z,9.68
2023-03-31T21:05:27.112Z,9.67
2023-03-31T21:07:53.826Z,9.69
2023-03-31T21:10:20.263Z,9.69
2023-03-31T21:12:46.749Z,9.71
2023-03-31T21:15:13.227Z,9.75
2023-03-31T21:17:39.832Z,9.80
2023-03-31T21:20:07.460Z,9.86
2023-03-31T21:22:34.026Z,9.90
2023-03-31T21:25:00.431Z,9.92
2023-03-31T21:27:27.239Z,9.95
2023-03-31T21:29:53.663Z,9.98
2023-03-31T21:32:20.228Z,10.02
2023-03-31T21:34:46.848Z,10.03
2023-03-31T21:37:13.845Z,10.05
2023-03-31T21:39:40.274Z,10.04
2023-03-31T21:42:06.818Z,10.05
2023-03-31T21:44:33.274Z,10.05
2023-03-31T21:46:59.798Z,10.03
2023-03-31T21:49:26.362Z,9.88
2023-03-31T21:51:52.967Z,9.73
2023-03-31T21:54:19.417Z,9.59
2023-03-31T21:56:45.982Z,9.46
2023-03-31T21:59:12.442Z,9.36
2023-03-31T22:01:38.926Z,9.26
2023-03-31T22:04:05.688Z,9.18
2023-03-31T22:06:32.177Z,9.13
2023-03-31T22:08:58.777Z,9.07
2023-03-31T22:11:25.610Z,9.00
2023-03-31T22:13:52.198Z,8.97
2023-03-31T22:16:22.017Z,8.91
2023-03-31T22:18:49.534Z,8.85
2023-03-31T22:21:17.242Z,8.80
2023-03-31T22:23:43.874Z,8.76
2023-03-31T22:26:10.450Z,8.72
2023-03-31T22:28:37.273Z,8.70
2023-03-31T22:31:03.834Z,8.71
2023-03-31T22:33:30.420Z,8.74
2023-03-31T22:35:57.095Z,8.76
2023-03-31T22:38:23.556Z,8.78
2023-03-31T22:40:50.104Z,8.81
2023-03-31T22:43:16.532Z,8.84
2023-03-31T22:45:42.982Z,8.87
2023-03-31T22:48:09.629Z,8.90
2023-03-31T22:50:36.182Z,8.94
2023-03-31T22:53:02.714Z,9.00
2023-03-31T22:55:29.331Z,9.05
2023-03-31T22:57:56.251Z,9.08
2023-03-31T23:00:22.944Z,9.12
2023-03-31T23:02:49.572Z,9.15
2023-03-31T23:05:16.115Z,9.16
2023-03-31T23:07:42.582Z,9.17
2023-03-31T23:10:09.728Z,9.18
2023-03-31T23:12:36.378Z,9.18
2023-03-31T23:15:03.390Z,9.19
2023-03-31T23:17:31.032Z,9.18
2023-03-31T23:19:57.522Z,9.18
2023-03-31T23:22:24.177Z,9.15
2023-03-31T23:24:50.633Z,9.12
2023-03-31T23:27:17.870Z,9.07
2023-03-31T23:29:46.186Z,8.98
2023-03-31T23:32:13.757Z,8.90
2023-03-31T23:34:40.256Z,8.82
2023-03-31T23:37:13.988Z,8.74
2023-03-31T23:39:40.586Z,8.66
2023-03-31T23:42:08.323Z,8.60
2023-03-31T23:44:35.585Z,8.53
2023-03-31T23:47:02.041Z,8.47
2023-03-31T23:49:28.565Z,8.40
2023-03-31T23:51:55.001Z,8.36
2023-03-31T23:54:21.557Z,8.28
2023-03-31T23:56:48.545Z,8.21
2023-03-31T23:59:16.313Z,8.17
